Time;durP1;ratioP1;P1;durP2;ratioP2;P2;SDS_P1;SDS_P2;PMS_P1;PMS_P2;Temp;Humidity;BMP_temperature;BMP_pressure;BME280_temperature;BME280_humidity;BME280_pressure;Samples;Min_cycle;Max_cycle;Signal;HPM_P1;HPM_P2
2022/07/23 00:01:33;;;;;;;5.17;1.98;;;;;;;15.45;100.00;100544.06;1719289;83;20980;-42
2022/07/23 00:04:01;;;;;;;3.90;1.98;;;;;;;15.43;100.00;100544.58;1719512;83;20995;-42
2022/07/23 00:06:28;;;;;;;4.85;1.85;;;;;;;15.40;100.00;100547.74;1719407;83;21150;-42
2022/07/23 00:08:55;;;;;;;4.70;2.00;;;;;;;15.35;100.00;100551.84;1719397;82;21023;-42
2022/07/23 00:11:24;;;;;;;3.25;2.10;;;;;;;15.29;100.00;100549.47;1693094;83;21528;-42
2022/07/23 00:13:53;;;;;;;5.28;2.27;;;;;;;15.25;100.00;100556.55;1719219;83;20944;-42
2022/07/23 00:16:20;;;;;;;5.97;2.20;;;;;;;15.21;100.00;100554.48;1719257;83;21019;-42
2022/07/23 00:18:47;;;;;;;2.50;2.30;;;;;;;15.16;100.00;100555.12;1721257;82;21858;-42
2022/07/23 00:21:15;;;;;;;7.10;2.75;;;;;;;15.09;100.00;100552.34;1719172;82;20932;-42
2022/07/23 00:23:43;;;;;;;6.03;3.70;;;;;;;15.04;100.00;100564.23;1719488;83;21066;-43
2022/07/23 00:26:09;;;;;;;6.03;4.47;;;;;;;14.99;100.00;100559.63;1719434;83;20944;-43
2022/07/23 00:28:37;;;;;;;11.50;5.30;;;;;;;14.93;100.00;100560.69;1742287;82;20968;-44
2022/07/23 00:31:04;;;;;;;6.95;5.08;;;;;;;14.90;100.00;100565.15;1721673;82;21152;-43
2022/07/23 00:33:31;;;;;;;6.92;5.42;;;;;;;14.87;100.00;100561.35;1749128;82;21561;-44
2022/07/23 00:35:58;;;;;;;6.30;5.65;;;;;;;14.85;100.00;100553.60;1749463;82;20951;-43
2022/07/23 00:38:25;;;;;;;7.62;5.37;;;;;;;14.87;100.00;100553.53;1721110;82;20944;-43
2022/07/23 00:40:52;;;;;;;7.67;5.33;;;;;;;14.86;100.00;100552.70;1749555;82;21526;-43
2022/07/23 00:43:22;;;;;;;6.40;5.53;;;;;;;14.83;100.00;100550.64;1749443;82;21090;-44
2022/07/23 00:45:49;;;;;;;6.97;4.92;;;;;;;14.79;100.00;100557.73;1697909;82;21010;-43
2022/07/23 00:48:18;;;;;;;14.85;6.10;;;;;;;14.78;100.00;100561.24;1749391;81;20940;-44
2022/07/23 00:50:45;;;;;;;6.08;5.40;;;;;;;14.78;100.00;100556.03;1728534;82;20980;-43
2022/07/23 00:53:13;;;;;;;6.67;5.85;;;;;;;14.77;100.00;100565.59;1719561;83;20940;-43
2022/07/23 00:55:40;;;;;;;8.83;4.62;;;;;;;14.77;100.00;100572.54;1719243;82;21233;-43
2022/07/23 00:58:07;;;;;;;8.08;5.00;;;;;;;14.75;100.00;100567.83;1719447;83;21672;-43
2022/07/23 01:00:34;;;;;;;8.90;4.97;;;;;;;14.71;100.00;100569.71;1734470;82;20979;-43
2022/07/23 01:03:01;;;;;;;4.60;4.20;;;;;;;14.69;100.00;100569.31;1721672;82;20984;-43
2022/07/23 01:05:29;;;;;;;4.60;4.20;;;;;;;14.65;100.00;100568.56;1749412;82;20991;-43
2022/07/23 01:07:56;;;;;;;4.85;4.22;;;;;;;14.62;100.00;100574.74;1735600;82;21202;-43
2022/07/23 01:10:32;;;;;;;4.20;3.55;;;;;;;14.60;100.00;100572.64;1731475;82;21489;-44
2022/07/23 01:13:04;;;;;;;6.55;4.55;;;;;;;14.56;100.00;100572.35;1718288;80;21047;-43
2022/07/23 01:15:31;;;;;;;5.53;4.15;;;;;;;14.53;100.00;100571.16;1717128;82;20956;-43
2022/07/23 01:17:58;;;;;;;5.75;4.42;;;;;;;14.53;100.00;100573.77;1713978;83;20976;-43
2022/07/23 01:20:26;;;;;;;5.62;4.30;;;;;;;14.51;100.00;100572.50;1715647;82;21230;-43
2022/07/23 01:22:54;;;;;;;7.92;4.47;;;;;;;14.48;100.00;100573.03;1713704;83;21497;-44
2022/07/23 01:25:21;;;;;;;5.28;4.78;;;;;;;14.47;100.00;100577.84;1713870;83;20900;-43
2022/07/23 01:27:52;;;;;;;5.10;4.70;;;;;;;14.45;100.00;100580.95;1712837;83;20959;-43
2022/07/23 01:30:21;;;;;;;10.32;5.25;;;;;;;14.43;100.00;100585.36;1724715;82;21569;-43
2022/07/23 01:32:48;;;;;;;5.20;4.83;;;;;;;14.44;100.00;100593.57;1741356;82;21289;-43
2022/07/23 01:35:15;;;;;;;6.85;4.97;;;;;;;14.46;100.00;100600.45;1743326;82;20992;-43
2022/07/23 01:37:43;;;;;;;5.08;4.37;;;;;;;14.44;100.00;100594.44;1743189;82;20976;-43
2022/07/23 01:40:11;;;;;;;9.65;4.85;;;;;;;14.47;100.00;100601.28;1729616;81;21035;-43
2022/07/23 01:42:38;;;;;;;5.60;4.80;;;;;;;14.48;100.00;100599.08;1708997;82;20976;-42
2022/07/23 01:45:07;;;;;;;5.78;4.53;;;;;;;14.51;100.00;100601.14;1725176;82;21103;-43
2022/07/23 01:47:35;;;;;;;8.70;4.35;;;;;;;14.53;100.00;100595.03;1743455;82;20964;-43
2022/07/23 01:50:02;;;;;;;7.80;3.77;;;;;;;14.60;100.00;100603.03;1727620;82;20972;-43
2022/07/23 01:52:46;;;;;;;5.78;3.75;;;;;;;14.62;100.00;100602.53;1743034;82;20932;-43
2022/07/23 01:55:13;;;;;;;5.62;4.00;;;;;;;14.67;100.00;100605.86;1743395;82;20988;-43
2022/07/23 01:57:42;;;;;;;3.45;3.17;;;;;;;14.69;100.00;100606.66;1723545;82;23002;-43
2022/07/23 02:00:12;;;;;;;3.85;3.20;;;;;;;14.69;100.00;100598.84;1715674;82;20972;-43
2022/07/23 02:02:44;;;;;;;3.08;2.70;;;;;;;14.70;100.00;100604.45;1691383;83;20984;-43
2022/07/23 02:05:11;;;;;;;4.87;2.45;;;;;;;14.72;100.00;100601.81;1722205;82;20905;-43
2022/07/23 02:07:39;;;;;;;5.25;2.27;;;;;;;14.72;100.00;100607.89;1743547;82;20971;-43
2022/07/23 02:10:09;;;;;;;3.40;2.67;;;;;;;14.73;100.00;100608.28;1740135;82;21111;-43
2022/07/23 02:12:38;;;;;;;8.90;2.70;;;;;;;14.76;100.00;100611.22;1713709;82;20964;-43
2022/07/23 02:15:07;;;;;;;7.10;2.50;;;;;;;14.78;100.00;100612.89;1713731;83;20940;-43
2022/07/23 02:17:34;;;;;;;3.30;2.12;;;;;;;14.77;100.00;100616.83;1684490;83;20956;-43
2022/07/23 02:20:02;;;;;;;7.50;2.60;;;;;;;14.72;100.00;100620.91;1716084;82;21485;-43
2022/07/23 02:22:29;;;;;;;4.47;2.12;;;;;;;14.69;100.00;100622.30;1721827;82;21270;-42
2022/07/23 02:24:56;;;;;;;5.67;2.22;;;;;;;14.68;100.00;100625.80;1743287;81;21011;-42
2022/07/23 02:27:24;;;;;;;6.33;2.40;;;;;;;14.66;100.00;100625.84;1709215;82;21057;-43
2022/07/23 02:29:51;;;;;;;3.40;2.10;;;;;;;14.65;100.00;100628.04;1720426;82;21035;-43
2022/07/23 02:32:18;;;;;;;2.50;1.85;;;;;;;14.65;100.00;100623.27;1713985;82;20948;-43
2022/07/23 02:34:45;;;;;;;3.30;1.95;;;;;;;14.63;100.00;100628.55;1708757;83;21249;-43
2022/07/23 02:37:13;;;;;;;5.08;2.40;;;;;;;14.61;100.00;100622.97;1736580;82;20941;-43
2022/07/23 02:39:40;;;;;;;5.53;2.10;;;;;;;14.61;100.00;100627.75;1739766;82;20909;-43
2022/07/23 02:42:07;;;;;;;2.90;1.90;;;;;;;14.59;100.00;100635.20;1740910;82;21043;-43
2022/07/23 02:44:35;;;;;;;11.03;2.08;;;;;;;14.56;100.00;100638.77;1743317;82;21010;-43
2022/07/23 02:47:02;;;;;;;6.70;2.00;;;;;;;14.54;100.00;100626.25;1743412;82;21141;-42
2022/07/23 02:49:29;;;;;;;4.83;2.10;;;;;;;14.53;100.00;100638.01;1713486;82;21028;-43
2022/07/23 02:51:56;;;;;;;7.12;1.98;;;;;;;14.51;100.00;100639.34;1742731;80;20932;-43
2022/07/23 02:54:23;;;;;;;4.15;2.33;;;;;;;14.50;100.00;100647.63;1743508;82;21572;-43
2022/07/23 02:56:52;;;;;;;8.68;2.12;;;;;;;14.51;100.00;100647.16;1742258;82;20897;-43
2022/07/23 02:59:19;;;;;;;9.15;2.60;;;;;;;14.52;100.00;100648.86;1711591;82;21836;-43
2022/07/23 03:01:47;;;;;;;4.08;2.40;;;;;;;14.54;100.00;100649.70;1713532;82;21076;-43
2022/07/23 03:04:15;;;;;;;3.77;2.08;;;;;;;14.55;100.00;100648.80;1704254;83;20999;-42
2022/07/23 03:06:42;;;;;;;2.22;2.08;;;;;;;14.58;100.00;100649.99;1713577;83;20995;-43
2022/07/23 03:09:11;;;;;;;5.12;2.05;;;;;;;14.59;100.00;100648.22;1714057;83;20979;-43
2022/07/23 03:11:39;;;;;;;3.25;2.02;;;;;;;14.62;100.00;100648.12;1713688;83;22102;-43
2022/07/23 03:14:07;;;;;;;7.97;2.22;;;;;;;14.65;100.00;100647.58;1713851;82;21501;-43
2022/07/23 03:16:35;;;;;;;5.60;1.98;;;;;;;14.71;100.00;100655.69;1697604;83;21528;-43
2022/07/23 03:19:03;;;;;;;2.17;1.98;;;;;;;14.75;100.00;100657.72;1752835;81;20929;-43
2022/07/23 03:21:29;;;;;;;2.85;2.02;;;;;;;14.79;100.00;100654.14;1750415;81;21046;-43
2022/07/23 03:23:57;;;;;;;3.08;2.12;;;;;;;14.85;100.00;100657.84;1721449;83;21144;-43
2022/07/23 03:26:25;;;;;;;2.40;2.02;;;;;;;14.91;100.00;100664.61;1721428;83;20958;-43
2022/07/23 03:28:52;;;;;;;6.83;2.33;;;;;;;14.96;100.00;100668.34;1750148;81;20947;-43
2022/07/23 03:31:21;;;;;;;7.28;2.40;;;;;;;15.00;100.00;100666.03;1754264;81;20936;-43
2022/07/23 03:33:48;;;;;;;6.33;2.15;;;;;;;15.04;100.00;100661.98;1756927;81;20986;-42
2022/07/23 03:36:16;;;;;;;6.12;2.05;;;;;;;15.08;100.00;100666.65;1722073;81;21081;-43
2022/07/23 03:38:44;;;;;;;3.35;2.27;;;;;;;15.13;100.00;100672.55;1721194;83;21045;-43
2022/07/23 03:41:12;;;;;;;5.53;2.30;;;;;;;15.18;100.00;100669.80;1728625;81;20943;-43
2022/07/23 03:43:39;;;;;;;3.60;2.90;;;;;;;15.25;100.00;100678.23;1726886;83;20892;-43
2022/07/23 03:46:07;;;;;;;6.10;2.90;;;;;;;15.31;100.00;100680.66;1724929;81;21540;-42
2022/07/23 03:48:35;;;;;;;5.37;2.77;;;;;;;15.36;100.00;100674.82;1721402;83;21111;-43
2022/07/23 03:51:02;;;;;;;3.15;2.85;;;;;;;15.43;100.00;100678.91;1752682;81;20920;-43
2022/07/23 03:53:29;;;;;;;7.72;3.15;;;;;;;15.51;100.00;100673.42;1750876;80;20971;-43
2022/07/23 03:55:56;;;;;;;3.05;2.60;;;;;;;15.61;100.00;100673.95;1757082;81;21608;-43
2022/07/23 03:58:23;;;;;;;6.78;2.60;;;;;;;15.73;100.00;100681.31;1756985;81;21003;-43
2022/07/23 04:00:50;;;;;;;6.28;2.27;;;;;;;15.90;100.00;100674.66;1755975;81;21267;-43
2022/07/23 04:03:17;;;;;;;5.03;2.50;;;;;;;16.11;100.00;100669.08;1730466;81;20983;-44
2022/07/23 04:05:44;;;;;;;2.87;2.33;;;;;;;16.42;100.00;100672.27;1750779;81;20975;-43
2022/07/23 04:08:13;;;;;;;2.35;2.00;;;;;;;16.70;100.00;100669.85;1728436;81;22096;-43
2022/07/23 04:10:42;;;;;;;5.37;1.80;;;;;;;16.93;100.00;100665.00;1755971;81;21481;-42
2022/07/23 04:13:11;;;;;;;5.15;1.70;;;;;;;17.19;100.00;100676.16;1756902;81;21140;-43
2022/07/23 04:15:40;;;;;;;3.17;1.72;;;;;;;17.32;100.00;100669.47;1731925;81;21035;-43
2022/07/23 04:18:07;;;;;;;7.03;2.02;;;;;;;17.48;100.00;100670.11;1706159;83;20968;-43
2022/07/23 04:20:36;;;;;;;4.08;1.90;;;;;;;17.59;100.00;100673.56;1722984;82;20933;-43
2022/07/23 04:23:04;;;;;;;3.12;1.90;;;;;;;17.68;100.00;100681.00;1732596;82;20929;-43
2022/07/23 04:25:31;;;;;;;4.42;1.50;;;;;;;17.77;100.00;100677.13;1732787;82;21229;-43
2022/07/23 04:27:58;;;;;;;2.62;1.87;;;;;;;17.90;100.00;100678.25;1734107;82;20968;-43
2022/07/23 04:32:23;;;;;;;7.75;1.95;;;;;;;18.28;100.00;100682.66;1780328;79;22521;-44
2022/07/23 04:34:50;;;;;;;4.78;1.85;;;;;;;18.46;100.00;100679.64;1758112;80;20963;-43
2022/07/23 04:37:17;;;;;;;1.70;1.60;;;;;;;18.69;100.00;100676.82;1757390;81;21241;-44
2022/07/23 04:39:44;;;;;;;5.42;1.98;;;;;;;18.84;100.00;100676.08;1759568;80;22340;-43
2022/07/23 04:42:12;;;;;;;4.58;2.52;;;;;;;18.89;100.00;100681.93;1755625;80;20972;-44
2022/07/23 04:44:40;;;;;;;4.37;1.85;;;;;;;18.99;99.59;100685.42;1756067;80;20945;-43
2022/07/23 04:47:08;;;;;;;2.42;1.90;;;;;;;18.99;97.56;100692.84;1757328;81;21039;-43
2022/07/23 04:49:35;;;;;;;4.83;2.17;;;;;;;19.05;98.29;100687.73;1763471;81;21199;-43
2022/07/23 04:52:04;;;;;;;5.05;2.10;;;;;;;19.11;97.22;100686.13;1758044;80;21493;-44
2022/07/23 04:54:31;;;;;;;2.35;2.10;;;;;;;19.14;95.73;100692.53;1761714;80;20944;-43
2022/07/23 04:56:58;;;;;;;4.42;2.00;;;;;;;19.15;96.05;100694.23;1757302;81;20975;-43
2022/07/23 04:59:26;;;;;;;13.72;2.00;;;;;;;19.22;95.96;100692.98;1755732;80;20960;-43
2022/07/23 05:01:55;;;;;;;4.42;1.82;;;;;;;19.33;95.87;100685.04;1745498;80;21399;-43
2022/07/23 05:04:22;;;;;;;3.87;1.70;;;;;;;19.48;96.30;100688.16;1736773;82;20976;-44
2022/07/23 05:06:50;;;;;;;6.87;1.87;;;;;;;19.72;96.31;100690.91;1736412;82;20968;-43
2022/07/23 05:09:18;;;;;;;4.35;2.12;;;;;;;19.97;94.87;100697.02;1719249;83;20932;-44
2022/07/23 05:11:45;;;;;;;2.10;1.90;;;;;;;20.09;92.58;100697.67;1719389;82;21035;-43
2022/07/23 05:14:14;;;;;;;2.05;1.95;;;;;;;20.04;90.80;100704.11;1719383;82;20940;-43
2022/07/23 05:16:42;;;;;;;2.22;2.02;;;;;;;20.05;91.50;100702.69;1736270;82;21003;-44
2022/07/23 05:19:12;;;;;;;4.20;2.10;;;;;;;20.06;91.43;100702.23;1747840;81;20924;-43
2022/07/23 05:21:39;;;;;;;2.60;1.80;;;;;;;20.18;92.01;100695.47;1745752;82;21004;-43
2022/07/23 05:24:07;;;;;;;3.50;2.05;;;;;;;20.39;90.70;100698.67;1719620;82;20971;-44
2022/07/23 05:26:36;;;;;;;3.10;1.80;;;;;;;20.64;90.58;100690.25;1719196;83;21126;-44
2022/07/23 05:29:04;;;;;;;3.92;1.87;;;;;;;20.89;89.80;100690.19;1730607;82;20936;-43
2022/07/23 05:31:32;;;;;;;2.55;2.00;;;;;;;21.06;88.43;100693.14;1721860;82;21686;-44
2022/07/23 05:33:59;;;;;;;6.62;2.30;;;;;;;21.17;87.04;100691.19;1722904;82;21028;-43
2022/07/23 05:36:27;;;;;;;2.20;2.00;;;;;;;21.23;85.93;100694.77;1720249;82;21609;-43
2022/07/23 05:38:56;;;;;;;6.47;2.00;;;;;;;21.34;86.07;100689.31;1720293;82;22033;-44
2022/07/23 05:41:23;;;;;;;2.22;2.12;;;;;;;21.44;85.89;100683.89;1742198;82;22225;-43
2022/07/23 05:43:50;;;;;;;4.92;2.15;;;;;;;21.72;84.81;100681.36;1726851;82;20933;-43
2022/07/23 05:46:18;;;;;;;1.90;1.80;;;;;;;21.81;85.05;100680.31;1719543;82;21549;-43
2022/07/23 05:48:49;;;;;;;6.53;2.30;;;;;;;21.90;83.09;100678.07;1720199;82;20916;-44
2022/07/23 05:51:33;;;;;;;5.33;2.85;;;;;;;21.88;82.37;100680.79;1734340;82;21124;-44
2022/07/23 05:54:00;;;;;;;2.00;1.90;;;;;;;21.64;82.71;100683.14;1743004;82;21497;-44
2022/07/23 05:56:29;;;;;;;7.12;2.30;;;;;;;21.54;83.13;100686.32;1728684;82;20980;-44
2022/07/23 05:58:56;;;;;;;10.53;2.40;;;;;;;21.40;84.10;100688.97;1719647;82;21046;-44
2022/07/23 06:01:23;;;;;;;5.97;2.83;;;;;;;21.47;85.54;100690.28;1719680;82;21050;-43
2022/07/23 06:03:52;;;;;;;5.35;2.05;;;;;;;21.64;84.24;100694.54;1718644;82;21159;-44
2022/07/23 06:06:19;;;;;;;6.55;1.77;;;;;;;21.77;84.69;100686.72;1721232;82;20944;-44
2022/07/23 06:08:47;;;;;;;2.08;1.90;;;;;;;22.00;83.92;100688.88;1719497;82;20933;-44
2022/07/23 06:11:14;;;;;;;3.60;1.92;;;;;;;22.14;83.75;100682.25;1728019;82;20970;-44
2022/07/23 06:13:43;;;;;;;6.05;2.27;;;;;;;22.32;83.67;100686.80;1730797;82;21518;-43
2022/07/23 06:16:11;;;;;;;4.67;2.08;;;;;;;22.58;84.04;100692.20;1724586;82;21290;-43
2022/07/23 06:18:39;;;;;;;6.53;2.10;;;;;;;22.82;81.69;100690.21;1719916;82;21529;-44
2022/07/23 06:21:07;;;;;;;3.77;2.02;;;;;;;22.73;77.59;100694.30;1719360;83;21518;-43
2022/07/23 06:23:34;;;;;;;4.33;2.15;;;;;;;22.67;79.00;100688.98;1719437;83;20944;-43
2022/07/23 06:26:01;;;;;;;2.98;2.60;;;;;;;22.57;78.80;100695.79;1720112;82;20980;-43
2022/07/23 06:28:29;;;;;;;2.45;1.98;;;;;;;22.52;81.13;100690.84;1725020;82;21928;-44
2022/07/23 06:30:56;;;;;;;2.35;1.90;;;;;;;22.66;80.89;100693.02;1735579;81;21086;-44
2022/07/23 06:33:24;;;;;;;2.45;2.25;;;;;;;22.60;78.15;100696.91;1706674;82;20945;-43
2022/07/23 06:35:51;;;;;;;3.55;2.45;;;;;;;22.36;78.01;100687.46;1708048;82;21029;-44
2022/07/23 06:38:19;;;;;;;2.40;2.20;;;;;;;22.30;79.35;100690.02;1705853;83;20968;-44
2022/07/23 06:40:46;;;;;;;6.62;2.40;;;;;;;22.32;78.58;100687.30;1706576;82;21236;-44
2022/07/23 06:43:13;;;;;;;3.47;1.92;;;;;;;22.41;78.05;100684.05;1707182;82;21534;-43
2022/07/23 06:45:40;;;;;;;4.30;2.30;;;;;;;22.49;79.53;100688.86;1705962;82;20984;-44
2022/07/23 06:48:07;;;;;;;3.12;2.37;;;;;;;22.49;76.74;100695.00;1705031;82;21107;-44
2022/07/23 06:50:34;;;;;;;3.87;2.50;;;;;;;22.37;77.91;100693.97;1712983;82;21015;-43
2022/07/23 06:53:01;;;;;;;3.33;2.30;;;;;;;22.25;79.12;100689.47;1714878;82;21094;-43
2022/07/23 06:55:29;;;;;;;5.75;2.40;;;;;;;22.30;79.27;100700.56;1713309;82;20979;-43
2022/07/23 06:57:56;;;;;;;2.02;1.92;;;;;;;22.44;77.04;100694.88;1706227;82;20909;-43
2022/07/23 07:00:26;;;;;;;3.60;1.95;;;;;;;22.53;76.14;100693.84;1713844;82;20996;-43
2022/07/23 07:02:55;;;;;;;2.58;2.20;;;;;;;22.58;75.74;100697.48;1709259;82;20996;-43
2022/07/23 07:05:22;;;;;;;2.15;2.00;;;;;;;22.64;76.23;100694.47;1711103;81;21099;-43
2022/07/23 07:07:50;;;;;;;2.10;2.00;;;;;;;22.63;75.50;100691.45;1706038;82;21462;-43
2022/07/23 07:10:20;;;;;;;4.28;1.85;;;;;;;22.71;75.36;100692.73;1711261;82;20944;-44
2022/07/23 07:12:47;;;;;;;5.20;2.72;;;;;;;22.75;74.34;100707.41;1732319;82;21475;-43
2022/07/23 07:15:15;;;;;;;3.25;2.22;;;;;;;22.79;74.09;100707.57;1735217;82;20995;-43
2022/07/23 07:17:43;;;;;;;2.92;1.80;;;;;;;22.79;76.50;100697.02;1735088;82;21130;-43
2022/07/23 07:20:11;;;;;;;2.85;2.27;;;;;;;22.90;74.06;100699.80;1714890;82;20989;-44
2022/07/23 07:22:38;;;;;;;3.42;1.90;;;;;;;23.12;73.24;100703.64;1706111;82;20897;-44
2022/07/23 07:25:07;;;;;;;2.92;1.80;;;;;;;23.27;71.68;100708.39;1719608;82;21700;-43
2022/07/23 07:27:36;;;;;;;2.30;1.57;;;;;;;23.37;71.72;100708.60;1721621;82;21487;-43
2022/07/23 07:30:05;;;;;;;8.53;1.92;;;;;;;23.49;69.16;100709.06;1705967;82;21248;-43
2022/07/23 07:32:36;;;;;;;2.00;1.90;;;;;;;23.51;71.19;100707.16;1714469;81;20928;-43
2022/07/23 07:35:05;;;;;;;4.78;1.70;;;;;;;23.65;68.47;100710.16;1732829;81;20904;-43
2022/07/23 07:37:33;;;;;;;1.70;1.60;;;;;;;23.68;68.67;100709.11;1706234;81;20944;-43
2022/07/23 07:40:00;;;;;;;3.37;1.82;;;;;;;23.56;67.63;100716.09;1726900;81;21078;-43
2022/07/23 07:42:27;;;;;;;2.85;1.70;;;;;;;23.52;67.79;100716.77;1749879;81;21261;-43
2022/07/23 07:44:54;;;;;;;4.50;1.80;;;;;;;23.70;66.76;100711.17;1746091;81;20971;-43
2022/07/23 07:47:20;;;;;;;2.65;1.80;;;;;;;23.94;65.82;100713.86;1756953;81;20989;-44
2022/07/23 07:49:47;;;;;;;3.55;1.55;;;;;;;24.08;65.78;100720.84;1737877;81;20975;-43
2022/07/23 07:52:15;;;;;;;5.70;1.57;;;;;;;24.15;64.35;100711.17;1758713;80;20998;-44
2022/07/23 07:54:42;;;;;;;2.27;1.82;;;;;;;24.34;64.62;100722.57;1737407;82;21134;-43
2022/07/23 07:57:11;;;;;;;1.42;1.37;;;;;;;24.51;65.18;100715.58;1739628;81;21506;-44
2022/07/23 07:59:38;;;;;;;5.00;2.00;;;;;;;24.64;62.58;100715.52;1740392;81;20940;-44
2022/07/23 08:02:05;;;;;;;3.08;1.50;;;;;;;24.80;63.97;100723.66;1748801;81;20947;-43
2022/07/23 08:04:32;;;;;;;2.92;1.92;;;;;;;25.05;61.80;100723.12;1729209;81;21473;-44
2022/07/23 08:06:59;;;;;;;2.50;1.42;;;;;;;25.05;61.12;100719.16;1736753;81;21294;-43
2022/07/23 08:09:28;;;;;;;1.30;1.30;;;;;;;25.14;62.03;100721.13;1728326;81;20939;-44
2022/07/23 08:11:55;;;;;;;4.15;1.62;;;;;;;25.34;61.24;100724.89;1728871;81;21525;-44
2022/07/23 08:14:24;;;;;;;2.55;1.45;;;;;;;25.54;63.89;100728.66;1735133;81;20975;-44
2022/07/23 08:16:51;;;;;;;2.80;1.80;;;;;;;25.62;60.92;100723.24;1744959;81;21387;-43
2022/07/23 08:19:19;;;;;;;1.70;1.42;;;;;;;25.73;59.18;100727.70;1742882;81;21272;-44
2022/07/23 08:21:46;;;;;;;1.62;1.52;;;;;;;25.82;57.84;100711.92;1745720;81;20912;-44
2022/07/23 08:24:13;;;;;;;1.47;1.37;;;;;;;25.99;57.26;100719.02;1731526;81;20967;-44
2022/07/23 08:26:41;;;;;;;2.25;1.50;;;;;;;26.03;56.57;100729.73;1726348;83;21026;-44
2022/07/23 08:29:08;;;;;;;1.67;1.40;;;;;;;25.99;56.05;100721.67;1748469;81;20991;-44
2022/07/23 08:31:35;;;;;;;1.82;1.70;;;;;;;26.15;57.15;100723.11;1746362;81;21250;-44
2022/07/23 08:34:02;;;;;;;1.85;1.72;;;;;;;26.23;55.11;100708.27;1737800;82;21008;-44
2022/07/23 08:36:32;;;;;;;1.87;1.62;;;;;;;26.52;54.97;100723.64;1717842;82;21284;-44
2022/07/23 08:38:59;;;;;;;5.17;1.50;;;;;;;26.75;53.25;100718.72;1743184;82;20972;-44
2022/07/23 08:41:26;;;;;;;4.65;1.40;;;;;;;26.65;53.05;100710.67;1743435;82;21095;-44
2022/07/23 08:43:53;;;;;;;2.17;1.25;;;;;;;26.54;52.69;100719.52;1740984;82;21035;-44
2022/07/23 08:46:22;;;;;;;1.30;1.25;;;;;;;26.57;52.34;100712.63;1719901;82;20968;-44
2022/07/23 08:48:49;;;;;;;5.00;1.55;;;;;;;26.38;53.38;100714.13;1738635;82;21015;-44
2022/07/23 08:51:16;;;;;;;4.97;1.45;;;;;;;26.44;54.72;100715.95;1721357;82;20983;-48
2022/07/23 08:53:43;;;;;;;3.98;1.42;;;;;;;26.42;53.41;100716.06;1735123;82;21557;-44
2022/07/23 08:56:10;;;;;;;1.65;1.55;;;;;;;26.29;52.73;100716.22;1722892;82;21227;-44
2022/07/23 08:58:37;;;;;;;2.02;1.35;;;;;;;26.41;51.79;100710.89;1716507;82;21023;-44
2022/07/23 09:01:04;;;;;;;4.70;1.75;;;;;;;26.52;52.70;100716.15;1743209;82;20932;-44
2022/07/23 09:03:34;;;;;;;6.90;1.62;;;;;;;26.37;52.17;100721.73;1733781;82;21677;-43
2022/07/23 09:06:03;;;;;;;7.30;1.27;;;;;;;26.56;52.26;100724.21;1716118;82;20905;-44
2022/07/23 09:08:42;;;;;;;5.47;1.50;;;;;;;26.63;50.34;100721.40;1735168;81;21576;-44
2022/07/23 09:11:11;;;;;;;2.58;1.22;;;;;;;26.61;50.63;100715.37;1729399;82;21007;-44
2022/07/23 09:13:58;;;;;;;2.10;1.20;;;;;;;26.75;52.54;100713.41;1721458;81;21036;-44
2022/07/23 09:16:30;;;;;;;5.08;1.30;;;;;;;26.93;51.06;100714.56;1716245;82;21055;-44
2022/07/23 09:19:03;;;;;;;1.27;1.17;;;;;;;26.85;48.78;100709.03;1719572;81;21497;-44
2022/07/23 09:21:35;;;;;;;6.28;1.10;;;;;;;26.86;49.91;100717.85;1735252;82;21187;-44
2022/07/23 09:24:11;;;;;;;1.32;0.90;;;;;;;26.66;49.46;100713.21;1732090;82;21592;-44
2022/07/23 09:26:46;;;;;;;1.85;1.20;;;;;;;26.58;50.06;100707.67;1720047;82;21034;-44
2022/07/23 09:29:25;;;;;;;3.08;1.42;;;;;;;26.73;50.95;100702.08;1686062;83;20952;-44
2022/07/23 09:31:58;;;;;;;1.55;1.20;;;;;;;27.03;50.65;100696.52;1714577;83;20937;-44
2022/07/23 09:34:30;;;;;;;4.12;1.42;;;;;;;27.38;50.77;100695.30;1737935;82;21091;-44
2022/07/23 09:37:00;;;;;;;2.00;1.10;;;;;;;27.78;49.71;100702.50;1744832;82;20987;-44
2022/07/23 09:39:33;;;;;;;1.75;1.32;;;;;;;27.93;48.60;100690.98;1745621;82;20956;-44
2022/07/23 09:42:19;;;;;;;1.47;1.37;;;;;;;27.68;50.09;100691.00;1749284;82;20984;-44
2022/07/23 09:44:49;;;;;;;2.20;1.57;;;;;;;27.08;50.12;100716.41;1749690;82;21122;-43
2022/07/23 09:47:16;;;;;;;6.50;1.50;;;;;;;26.67;50.50;100700.77;1749076;81;21153;-44
2022/07/23 09:50:09;;;;;;;6.03;2.27;;;;;;;26.77;48.76;100706.16;1749097;82;21012;-44
2022/07/23 09:52:48;;;;;;;2.30;1.32;;;;;;;26.92;48.52;100700.92;1749003;81;22208;-44
2022/07/23 09:55:17;;;;;;;2.45;1.37;;;;;;;27.22;50.28;100694.45;1748501;81;20979;-44
2022/07/23 09:57:55;;;;;;;1.80;1.10;;;;;;;27.67;47.68;100699.95;1749133;82;20980;-43
2022/07/23 10:00:16;;;;;;;7.30;1.32;;;;;;;27.62;47.70;100699.02;1744586;82;21207;-43
2022/07/23 10:02:43;;;;;;;2.98;1.67;;;;;;;27.73;47.27;100699.41;1714025;83;20971;-43
2022/07/23 10:05:29;;;;;;;3.90;1.20;;;;;;;27.90;46.42;100691.73;1597060;88;21107;-44
2022/07/23 10:08:15;;;;;;;5.47;1.12;;;;;;;27.92;46.55;100697.28;1700233;82;21023;-44
2022/07/23 10:11:01;;;;;;;2.17;0.90;;;;;;;27.67;46.64;100698.63;1736049;82;21051;-44
2022/07/23 10:13:57;;;;;;;5.03;0.93;;;;;;;27.52;46.86;100693.66;1726979;82;21154;-44
2022/07/23 10:16:38;;;;;;;0.93;0.90;;;;;;;27.42;48.30;100687.91;1718672;83;20916;-43
2022/07/23 10:19:05;;;;;;;2.83;1.00;;;;;;;27.44;47.08;100684.16;1720861;82;21517;-43
2022/07/23 10:21:57;;;;;;;1.95;1.42;;;;;;;27.69;47.68;100684.70;1749059;82;20936;-44
2022/07/23 10:24:45;;;;;;;4.83;1.00;;;;;;;28.17;46.63;100685.81;1730668;82;21023;-44
2022/07/23 10:27:46;;;;;;;1.50;1.17;;;;;;;28.16;46.06;100678.81;1747561;82;21083;-46
2022/07/23 10:30:43;;;;;;;3.87;0.93;;;;;;;27.83;46.57;100687.47;1743145;81;21003;-44
2022/07/23 10:33:38;;;;;;;0.72;0.72;;;;;;;27.52;47.41;100677.71;1729624;82;21485;-44
2022/07/23 10:36:25;;;;;;;3.92;1.05;;;;;;;27.50;47.66;100675.64;1727884;82;20984;-44
2022/07/23 10:39:24;;;;;;;1.80;1.02;;;;;;;27.19;48.38;100677.45;1729081;82;20976;-43
2022/07/23 10:41:52;;;;;;;3.27;0.90;;;;;;;26.76;49.81;100682.73;1731483;82;20979;-44
2022/07/23 10:44:23;;;;;;;2.22;1.07;;;;;;;26.60;50.83;100674.39;1718792;82;20991;-44
2022/07/23 10:47:31;;;;;;;1.40;1.17;;;;;;;26.98;52.55;100666.85;1714358;82;20912;-44
2022/07/23 10:49:50;;;;;;;2.47;1.00;;;;;;;27.27;49.79;100670.16;1730046;82;21000;-44
2022/07/23 10:52:26;;;;;;;1.27;1.10;;;;;;;27.15;49.21;100675.53;1738489;81;21560;-44
2022/07/23 10:54:57;;;;;;;2.45;0.80;;;;;;;27.12;48.54;100670.48;1740926;82;21300;-44
2022/07/23 10:57:25;;;;;;;0.88;0.88;;;;;;;26.95;47.38;100663.48;1714453;82;21506;-44
2022/07/23 11:02:33;;;;;;;1.35;1.20;;;;;;;27.05;48.98;100662.70;1713549;83;20959;-44
2022/07/23 11:05:14;;;;;;;3.12;1.02;;;;;;;27.50;47.77;100655.72;1739209;82;20961;-44
2022/07/23 11:08:11;;;;;;;2.95;1.27;;;;;;;27.80;47.80;100650.02;1743021;82;21271;-44
2022/07/23 11:11:05;;;;;;;3.00;1.02;;;;;;;27.95;48.10;100650.97;1740894;81;20933;-44
2022/07/23 11:13:47;;;;;;;0.95;0.93;;;;;;;27.97;48.44;100648.51;1743089;82;20991;-44
2022/07/23 11:16:19;;;;;;;1.20;1.10;;;;;;;27.79;47.33;100648.34;1743246;82;20960;-44
2022/07/23 11:18:55;;;;;;;4.00;1.50;;;;;;;27.81;45.17;100645.05;1743084;81;21007;-44
2022/07/23 11:21:29;;;;;;;;;;;;;;;27.89;46.15;100644.84;1746129;82;21207;-44
2022/07/23 11:24:13;;;;;;;7.03;1.02;;;;;;;28.02;45.77;100639.27;1741082;81;20445;-44
2022/07/23 11:26:50;;;;;;;1.50;1.02;;;;;;;28.04;47.85;100653.27;1713649;83;20987;-44
2022/07/23 11:29:33;;;;;;;2.77;0.93;;;;;;;28.10;50.03;100656.23;1714033;82;20975;-44
2022/07/23 11:32:04;;;;;;;1.32;1.07;;;;;;;28.22;49.30;100645.00;1713809;83;20987;-44
2022/07/23 11:34:40;;;;;;;4.40;1.10;;;;;;;28.42;49.83;100646.81;1706311;83;21344;-44
2022/07/23 11:37:12;;;;;;;10.58;1.20;;;;;;;28.79;48.60;100636.80;1705730;83;20979;-44
2022/07/23 11:39:39;;;;;;;3.37;1.17;;;;;;;28.87;46.77;100635.58;1710230;81;20996;-44